createdAt,value
2019-01-28T00:01:41.758Z,95196.57
2019-01-28T00:06:36.422Z,95190.69
2019-01-28T00:11:30.983Z,95184.00
2019-01-28T00:16:25.569Z,95184.41
2019-01-28T00:21:20.155Z,95159.89
2019-01-28T00:26:14.726Z,95163.20
2019-01-28T00:31:09.381Z,95170.16
2019-01-28T00:36:04.010Z,95172.70
2019-01-28T00:40:58.592Z,95185.05
2019-01-28T00:45:53.150Z,95188.59
2019-01-28T00:50:47.827Z,95178.61
2019-01-28T00:55:42.387Z,95177.58
2019-01-28T01:00:37.114Z,95179.47
2019-01-28T01:05:31.819Z,95181.27
2019-01-28T01:10:26.418Z,95205.33
2019-01-28T01:15:21.052Z,95203.48
2019-01-28T01:20:17.862Z,95220.52
2019-01-28T01:25:14.247Z,95233.23
2019-01-28T01:30:15.705Z,95243.44
2019-01-28T01:35:10.489Z,95232.56
2019-01-28T01:40:09.099Z,95237.41
2019-01-28T01:45:04.105Z,95230.02
2019-01-28T01:49:58.704Z,95217.33
2019-01-28T01:54:53.278Z,95218.59
2019-01-28T01:59:47.861Z,95218.40
2019-01-28T02:04:42.430Z,95216.59
2019-01-28T02:09:37.118Z,95211.64
2019-01-28T02:14:31.689Z,95215.66
2019-01-28T02:19:26.268Z,95207.16
2019-01-28T02:24:20.872Z,95203.21
2019-01-28T02:29:15.454Z,95194.81
2019-01-28T02:34:10.053Z,95206.02
2019-01-28T02:39:07.540Z,95205.36
2019-01-28T02:44:02.131Z,95207.84
2019-01-28T02:48:56.710Z,95209.84
2019-01-28T02:53:51.303Z,95213.02
2019-01-28T02:58:45.873Z,95212.72
2019-01-28T03:03:40.473Z,95217.12
2019-01-28T03:08:35.037Z,95207.66
2019-01-28T03:13:29.620Z,95208.80
2019-01-28T03:18:24.187Z,95200.59
2019-01-28T03:23:20.246Z,95206.84
2019-01-28T03:28:14.826Z,95199.34
2019-01-28T03:33:09.433Z,95189.78
2019-01-28T03:38:04.068Z,95197.91
2019-01-28T03:42:58.723Z,95194.14
2019-01-28T03:47:53.287Z,95197.71
2019-01-28T03:52:48.386Z,95210.05
2019-01-28T03:57:43.258Z,95208.67
2019-01-28T04:02:37.994Z,95203.05
2019-01-28T04:07:32.572Z,95203.43
2019-01-28T04:12:27.155Z,95200.63
2019-01-28T04:17:21.740Z,95202.88
2019-01-28T04:22:16.363Z,95208.28
2019-01-28T04:27:10.950Z,95204.25
2019-01-28T04:32:05.787Z,95208.02
2019-01-28T04:37:00.371Z,95208.42
2019-01-28T04:41:54.955Z,95203.03
2019-01-28T04:46:49.561Z,95200.82
2019-01-28T04:51:44.168Z,95185.09
2019-01-28T04:56:38.820Z,95185.93
2019-01-28T05:01:33.391Z,95179.47
2019-01-28T05:06:27.972Z,95181.61
2019-01-28T05:11:22.629Z,95181.12
2019-01-28T05:16:17.204Z,95180.23
2019-01-28T05:21:11.784Z,95177.28
2019-01-28T05:26:06.448Z,95171.55
2019-01-28T05:31:01.045Z,95176.06
2019-01-28T05:35:55.701Z,95183.97
2019-01-28T05:40:50.269Z,95174.07
2019-01-28T05:45:44.841Z,95183.41
2019-01-28T05:50:39.422Z,95179.13
2019-01-28T05:55:34.085Z,95183.30
2019-01-28T06:00:31.645Z,95190.02
2019-01-28T06:05:26.299Z,95197.12
2019-01-28T06:10:21.032Z,95191.84
2019-01-28T06:15:18.758Z,95197.56
2019-01-28T06:20:25.425Z,95197.23
2019-01-28T06:25:20.269Z,95192.14
2019-01-28T06:30:22.067Z,95180.65
2019-01-28T06:35:16.845Z,95185.16
2019-01-28T06:40:24.730Z,95194.80
2019-01-28T06:45:19.551Z,95208.56
2019-01-28T06:50:21.163Z,95217.14
2019-01-28T06:55:16.070Z,95215.93
2019-01-28T07:00:29.705Z,95222.13
2019-01-28T07:05:24.434Z,95222.81
2019-01-28T07:10:19.263Z,95222.45
2019-01-28T07:15:18.651Z,95227.15
2019-01-28T07:20:24.753Z,95228.88
2019-01-28T07:25:20.036Z,95234.91
2019-01-28T07:30:32.914Z,95241.27
2019-01-28T07:35:27.699Z,95229.23
2019-01-28T07:40:22.527Z,95234.27
2019-01-28T07:45:21.941Z,95234.94
2019-01-28T07:50:16.650Z,95243.95
2019-01-28T07:55:13.343Z,95234.78
2019-01-28T08:00:12.585Z,95234.78
2019-01-28T08:05:12.554Z,95229.97
2019-01-28T08:10:12.728Z,95229.19
2019-01-28T08:15:15.739Z,95245.72
2019-01-28T08:20:14.762Z,95248.09
2019-01-28T08:25:13.839Z,95257.27
2019-01-28T08:30:18.570Z,95250.87
2019-01-28T08:35:14.293Z,95256.30
2019-01-28T08:40:18.568Z,95256.92
2019-01-28T08:45:14.423Z,95257.70
2019-01-28T08:50:22.076Z,95257.17
2019-01-28T08:55:20.377Z,95248.77
2019-01-28T09:00:25.329Z,95253.94
2019-01-28T09:05:22.382Z,95253.73
2019-01-28T09:10:22.065Z,95251.06
2019-01-28T09:15:22.927Z,95259.13
2019-01-28T09:20:21.511Z,95242.02
2019-01-28T09:25:17.608Z,95247.98
2019-01-28T09:30:28.878Z,95249.61
2019-01-28T09:35:23.774Z,95254.21
2019-01-28T09:40:25.217Z,95254.89
2019-01-28T09:45:27.142Z,95258.69
2019-01-28T09:50:22.296Z,95252.33
2019-01-28T09:55:18.488Z,95266.67
2019-01-28T10:00:32.565Z,95267.68
2019-01-28T10:05:27.386Z,95283.80
2019-01-28T10:10:23.186Z,95280.12
2019-01-28T10:15:28.495Z,95276.86
2019-01-28T10:20:27.099Z,95269.70
2019-01-28T10:25:23.998Z,95281.02
2019-01-28T10:30:23.339Z,95283.98
2019-01-28T10:35:18.718Z,95294.19
2019-01-28T10:40:21.203Z,95296.13
2019-01-28T10:45:22.215Z,95290.13
2019-01-28T10:50:25.424Z,95282.89
2019-01-28T10:55:27.612Z,95294.05
2019-01-28T11:00:29.915Z,95291.70
2019-01-28T11:05:29.016Z,95286.62
2019-01-28T11:10:29.340Z,95285.17
2019-01-28T11:15:27.905Z,95282.75
2019-01-28T11:20:23.298Z,95274.20
2019-01-28T11:25:22.094Z,95271.00
2019-01-28T11:30:33.866Z,95285.11
2019-01-28T11:35:28.889Z,95292.16
2019-01-28T11:40:23.779Z,95281.50
2019-01-28T11:45:32.220Z,95266.35
2019-01-28T11:50:26.924Z,95267.41
2019-01-28T11:55:21.562Z,95279.08
2019-01-28T12:00:27.985Z,95272.01
2019-01-28T12:05:22.724Z,95276.73
2019-01-28T12:10:17.614Z,95278.47
2019-01-28T12:15:21.115Z,95275.56
2019-01-28T12:20:18.324Z,95278.88
2019-01-28T12:25:16.008Z,95294.70
2019-01-28T12:30:29.018Z,95293.33
2019-01-28T12:35:24.072Z,95298.58
2019-01-28T12:40:21.879Z,95306.63
2019-01-28T12:45:26.576Z,95304.86
2019-01-28T12:50:23.472Z,95311.16
2019-01-28T12:55:22.510Z,95313.84
2019-01-28T13:00:25.752Z,95316.95
2019-01-28T13:05:23.986Z,95322.63
2019-01-28T13:10:24.656Z,95319.31
2019-01-28T13:15:29.568Z,95334.91
2019-01-28T13:20:24.654Z,95328.70
2019-01-28T13:25:26.498Z,95334.36
2019-01-28T13:30:40.121Z,95340.27
2019-01-28T13:35:34.692Z,95335.08
2019-01-28T13:40:29.401Z,95330.53
2019-01-28T13:45:28.491Z,95332.83
2019-01-28T13:50:25.155Z,95340.84
2019-01-28T13:55:21.836Z,95342.08
2019-01-28T14:00:23.804Z,95350.64
2019-01-28T14:05:18.570Z,95353.30
2019-01-28T14:10:16.986Z,95353.39
2019-01-28T14:15:16.171Z,95359.42
2019-01-28T14:20:25.868Z,95369.40
2019-01-28T14:25:20.691Z,95371.88
2019-01-28T14:30:22.800Z,95380.73
2019-01-28T14:35:17.607Z,95373.75
2019-01-28T14:40:17.368Z,95385.73
2019-01-28T14:45:13.358Z,95393.17
2019-01-28T14:50:18.042Z,95391.23
2019-01-28T14:55:12.828Z,95399.80
2019-01-28T15:00:15.917Z,95396.48
2019-01-28T15:05:12.666Z,95408.03
2019-01-28T15:10:12.629Z,95410.11
2019-01-28T15:15:12.610Z,95412.17
2019-01-28T15:20:09.520Z,95425.20
2019-01-28T15:25:05.547Z,95423.84
2019-01-28T15:30:00.191Z,95434.63
2019-01-28T15:34:54.857Z,95436.48
2019-01-28T15:39:49.471Z,95445.44
2019-01-28T15:44:44.144Z,95447.70
2019-01-28T15:49:38.901Z,95452.53
2019-01-28T15:54:34.097Z,95452.38
2019-01-28T15:59:28.931Z,95466.86
2019-01-28T16:04:23.912Z,95463.06
2019-01-28T16:09:18.491Z,95470.20
2019-01-28T16:14:13.082Z,95475.79
2019-01-28T16:19:08.024Z,95484.98
2019-01-28T16:24:03.219Z,95500.84
2019-01-28T16:28:58.023Z,95504.78
2019-01-28T16:33:52.657Z,95495.56
2019-01-28T16:38:47.239Z,95504.69
2019-01-28T16:43:41.909Z,95516.13
2019-01-28T16:48:36.597Z,95526.10
2019-01-28T16:53:31.238Z,95535.07
2019-01-28T16:58:26.034Z,95549.13
2019-01-28T17:03:20.766Z,95539.38
2019-01-28T17:08:15.431Z,95549.44
2019-01-28T17:13:11.079Z,95559.39
2019-01-28T17:18:06.667Z,95567.72
2019-01-28T17:23:01.260Z,95576.48
2019-01-28T17:27:55.861Z,95578.71
2019-01-28T17:32:50.536Z,95591.86
2019-01-28T17:37:45.103Z,95596.97
2019-01-28T17:42:39.711Z,95608.52
2019-01-28T17:47:34.536Z,95622.25
2019-01-28T17:52:29.135Z,95622.27
2019-01-28T17:57:23.764Z,95632.41
2019-01-28T18:02:18.380Z,95637.17
2019-01-28T18:07:13.031Z,95638.88
2019-01-28T18:12:07.634Z,95664.64
2019-01-28T18:17:02.212Z,95665.04
2019-01-28T18:21:56.793Z,95664.42
2019-01-28T18:26:51.404Z,95662.35
2019-01-28T18:31:45.983Z,95673.58
2019-01-28T18:36:40.605Z,95678.06
2019-01-28T18:41:35.214Z,95689.09
2019-01-28T18:46:29.832Z,95696.05
2019-01-28T18:51:24.475Z,95705.91
2019-01-28T18:56:19.228Z,95709.08
2019-01-28T19:01:13.946Z,95719.23
2019-01-28T19:06:10.309Z,95733.05
2019-01-28T19:11:14.686Z,95729.66
2019-01-28T19:16:13.821Z,95728.38
2019-01-28T19:21:10.043Z,95742.49
2019-01-28T19:26:05.205Z,95743.71
2019-01-28T19:30:59.804Z,95753.66
2019-01-28T19:35:54.386Z,95765.30
2019-01-28T19:40:49.033Z,95768.97
2019-01-28T19:45:43.625Z,95783.41
2019-01-28T19:50:38.212Z,95791.64
2019-01-28T19:55:32.796Z,95796.72
2019-01-28T20:00:27.767Z,95812.44
2019-01-28T20:05:22.496Z,95809.72
2019-01-28T20:10:17.229Z,95817.48
2019-01-28T20:15:18.990Z,95819.76
2019-01-28T20:20:17.977Z,95816.48
2019-01-28T20:25:16.463Z,95822.38
2019-01-28T20:30:18.141Z,95834.48
2019-01-28T20:35:15.282Z,95833.88
2019-01-28T20:40:14.107Z,95838.20
2019-01-28T20:45:15.765Z,95845.86
2019-01-28T20:50:23.441Z,95861.09
2019-01-28T20:55:18.164Z,95849.88
2019-01-28T21:00:17.109Z,95864.61
2019-01-28T21:05:16.710Z,95883.59
2019-01-28T21:10:16.009Z,95877.95
2019-01-28T21:15:14.482Z,95888.98
2019-01-28T21:20:13.719Z,95895.92
2019-01-28T21:25:13.575Z,95891.56
2019-01-28T21:30:27.658Z,95904.12
2019-01-28T21:35:26.664Z,95910.91
2019-01-28T21:40:21.255Z,95913.19
2019-01-28T21:45:16.727Z,95903.86
2019-01-28T21:50:12.884Z,95909.44
2019-01-28T21:55:09.382Z,95918.80
2019-01-28T22:00:05.574Z,95919.38
2019-01-28T22:05:00.268Z,95916.52
2019-01-28T22:09:54.803Z,95922.75
2019-01-28T22:14:49.396Z,95924.35
2019-01-28T22:19:44.049Z,95925.75
2019-01-28T22:24:38.671Z,95928.91
2019-01-28T22:29:33.246Z,95926.43
2019-01-28T22:34:27.909Z,95932.59
2019-01-28T22:39:22.486Z,95934.29
2019-01-28T22:44:17.075Z,95950.48
2019-01-28T22:49:11.669Z,95957.06
2019-01-28T22:54:06.557Z,95962.61
2019-01-28T22:59:01.191Z,95959.61
2019-01-28T23:03:55.838Z,95968.77
2019-01-28T23:08:50.414Z,95968.00
2019-01-28T23:13:44.992Z,95979.27
2019-01-28T23:18:39.594Z,95988.27
2019-01-28T23:23:34.182Z,95988.98
2019-01-28T23:28:28.762Z,95997.84
2019-01-28T23:33:23.412Z,95996.55
2019-01-28T23:38:18.008Z,95996.77
2019-01-28T23:43:12.671Z,95995.19
2019-01-28T23:48:07.279Z,95986.23
2019-01-28T23:53:01.860Z,95987.23
2019-01-28T23:57:57.148Z,95989.03
